createdAt,value
2018-06-04T00:00:06.392Z,80.20
2018-06-04T00:02:35.173Z,80.70
2018-06-04T00:05:03.986Z,80.60
2018-06-04T00:07:32.760Z,80.20
2018-06-04T00:10:01.606Z,80.50
2018-06-04T00:12:30.378Z,80.80
2018-06-04T00:15:10.958Z,81.00
2018-06-04T00:20:08.169Z,81.20
2018-06-04T00:22:36.961Z,81.40
2018-06-04T00:25:05.726Z,81.40
2018-06-04T00:27:34.517Z,81.90
2018-06-04T00:30:03.278Z,82.00
2018-06-04T00:32:32.098Z,82.40
2018-06-04T00:35:00.861Z,82.20
2018-06-04T00:37:29.702Z,82.00
2018-06-04T00:39:58.483Z,81.70
2018-06-04T00:42:27.215Z,82.20
2018-06-04T00:44:55.961Z,81.60
2018-06-04T00:47:24.805Z,82.50
2018-06-04T00:49:53.641Z,82.90
2018-06-04T00:52:22.777Z,83.40
2018-06-04T00:54:51.578Z,83.90
2018-06-04T00:57:20.440Z,83.60
2018-06-04T00:59:49.238Z,83.50
2018-06-04T01:02:18.030Z,83.50
2018-06-04T01:04:46.911Z,83.10
2018-06-04T01:07:15.705Z,83.40
2018-06-04T01:09:44.474Z,84.10
2018-06-04T01:12:13.275Z,83.50
2018-06-04T01:14:42.123Z,83.70
2018-06-04T01:17:10.973Z,83.50
2018-06-04T01:19:39.786Z,84.70
2018-06-04T01:22:08.590Z,84.40
2018-06-04T01:24:37.425Z,84.30
2018-06-04T01:27:06.209Z,85.10
2018-06-04T01:29:35.034Z,84.20
2018-06-04T01:32:03.781Z,85.00
2018-06-04T01:34:32.590Z,84.90
2018-06-04T01:37:01.438Z,84.50
2018-06-04T01:39:30.266Z,84.70
2018-06-04T01:41:59.058Z,84.40
2018-06-04T01:44:27.866Z,84.20
2018-06-04T01:46:56.655Z,84.10
2018-06-04T01:49:25.514Z,85.60
2018-06-04T01:51:54.314Z,85.40
2018-06-04T01:54:23.234Z,85.40
2018-06-04T01:56:52.081Z,85.20
2018-06-04T01:59:20.882Z,85.20
2018-06-04T02:01:49.674Z,84.80
2018-06-04T02:04:18.438Z,84.90
2018-06-04T02:06:47.177Z,84.80
2018-06-04T02:09:20.401Z,84.80
2018-06-04T02:11:49.222Z,84.90
2018-06-04T02:14:18.050Z,85.30
2018-06-04T02:16:46.891Z,85.80
2018-06-04T02:19:15.697Z,85.80
2018-06-04T02:21:44.486Z,85.90
2018-06-04T02:24:13.285Z,85.70
2018-06-04T02:26:42.393Z,86.60
2018-06-04T02:29:11.230Z,87.30
2018-06-04T02:31:40.028Z,86.40
2018-06-04T02:34:08.838Z,86.00
2018-06-04T02:36:37.634Z,85.90
2018-06-04T02:39:07.310Z,86.20
2018-06-04T02:41:36.110Z,86.70
2018-06-04T02:44:04.962Z,86.50
2018-06-04T02:46:33.731Z,85.70
2018-06-04T02:49:02.506Z,86.10
2018-06-04T02:51:31.350Z,86.30
2018-06-04T02:54:00.162Z,87.30
2018-06-04T02:56:28.965Z,86.60
2018-06-04T02:58:57.774Z,87.30
2018-06-04T03:01:26.629Z,86.60
2018-06-04T03:03:55.438Z,86.50
2018-06-04T03:06:24.265Z,85.90
2018-06-04T03:08:53.078Z,86.00
2018-06-04T03:11:21.846Z,86.30
2018-06-04T03:13:50.672Z,86.40
2018-06-04T03:16:19.506Z,86.60
2018-06-04T03:18:48.277Z,86.20
2018-06-04T03:21:18.418Z,86.60
2018-06-04T03:23:47.210Z,86.90
2018-06-04T03:26:15.970Z,86.90
2018-06-04T03:28:44.769Z,86.40
2018-06-04T03:31:13.577Z,86.60
2018-06-04T03:33:42.349Z,86.80
2018-06-04T03:36:11.133Z,86.90
2018-06-04T03:38:39.986Z,86.90
2018-06-04T03:41:08.806Z,87.10
2018-06-04T03:43:37.626Z,86.70
2018-06-04T03:46:06.418Z,86.70
2018-06-04T03:48:35.256Z,87.20
2018-06-04T03:51:04.034Z,87.50
2018-06-04T03:53:32.825Z,87.70
2018-06-04T03:56:01.803Z,87.60
2018-06-04T03:58:30.591Z,87.60
2018-06-04T04:00:59.393Z,87.80
2018-06-04T04:03:28.265Z,87.60
2018-06-04T04:05:57.077Z,87.40
2018-06-04T04:08:25.887Z,87.80
2018-06-04T04:10:54.645Z,87.80
2018-06-04T04:13:23.455Z,88.90
2018-06-04T04:15:52.358Z,88.90
2018-06-04T04:18:21.186Z,87.90
2018-06-04T04:20:49.997Z,88.30
2018-06-04T04:23:18.819Z,88.40
2018-06-04T04:25:47.625Z,88.50
2018-06-04T04:28:16.427Z,89.20
2018-06-04T04:30:45.246Z,90.10
2018-06-04T04:33:14.066Z,90.00
2018-06-04T04:35:42.894Z,90.00
2018-06-04T04:38:11.651Z,90.00
2018-06-04T04:40:40.461Z,89.90
2018-06-04T04:43:09.289Z,89.90
2018-06-04T04:45:38.066Z,90.10
2018-06-04T04:48:06.890Z,90.10
2018-06-04T04:50:36.546Z,90.20
2018-06-04T04:53:05.354Z,90.20
2018-06-04T04:55:34.156Z,90.10
2018-06-04T04:58:02.966Z,90.10
2018-06-04T05:03:00.314Z,90.00
2018-06-04T05:05:29.208Z,90.00
2018-06-04T05:07:57.993Z,90.00
2018-06-04T05:10:26.778Z,90.10
2018-06-04T05:12:55.586Z,90.20
2018-06-04T05:15:24.402Z,90.10
2018-06-04T05:17:53.229Z,90.20
2018-06-04T05:20:22.023Z,90.20
2018-06-04T05:22:50.902Z,90.10
2018-06-04T05:25:19.722Z,90.20
2018-06-04T05:27:48.789Z,90.40
2018-06-04T05:30:17.610Z,90.70
2018-06-04T05:32:46.398Z,90.30
2018-06-04T05:35:15.194Z,90.30
2018-06-04T05:37:44.027Z,90.60
2018-06-04T05:40:12.822Z,90.70
2018-06-04T05:42:41.686Z,90.90
2018-06-04T05:45:10.502Z,90.50
2018-06-04T05:47:39.262Z,90.60
2018-06-04T05:50:08.075Z,90.80
2018-06-04T05:52:36.879Z,90.70
2018-06-04T05:55:05.894Z,90.70
2018-06-04T05:57:34.697Z,90.90
2018-06-04T06:00:04.244Z,91.00
2018-06-04T06:02:33.178Z,91.10
2018-06-04T06:05:01.988Z,91.30
2018-06-04T06:07:30.901Z,91.00
2018-06-04T06:10:10.695Z,91.70
2018-06-04T06:12:40.829Z,91.50
2018-06-04T06:15:09.875Z,91.40
2018-06-04T06:17:44.395Z,91.60
2018-06-04T06:20:14.277Z,90.90
2018-06-04T06:22:43.128Z,91.00
2018-06-04T06:25:12.037Z,90.70
2018-06-04T06:27:40.838Z,91.10
2018-06-04T06:30:09.619Z,91.00
2018-06-04T06:32:38.393Z,91.10
2018-06-04T06:35:07.242Z,90.60
2018-06-04T06:40:10.085Z,91.20
2018-06-04T06:42:38.850Z,91.50
2018-06-04T06:45:08.273Z,91.40
2018-06-04T06:47:37.041Z,91.00
2018-06-04T06:50:05.899Z,90.40
2018-06-04T06:52:34.653Z,90.80
2018-06-04T06:55:03.518Z,90.20
2018-06-04T06:57:32.274Z,90.60
2018-06-04T07:00:04.653Z,90.40
2018-06-04T07:02:42.201Z,90.40
2018-06-04T07:05:17.681Z,90.70
2018-06-04T07:08:03.905Z,90.90
2018-06-04T07:10:32.769Z,90.50
2018-06-04T07:13:01.582Z,90.40
2018-06-04T07:15:30.337Z,90.40
2018-06-04T07:17:59.246Z,90.80
2018-06-04T07:20:28.066Z,90.20
2018-06-04T07:23:11.455Z,90.40
2018-06-04T07:25:40.303Z,89.70
2018-06-04T07:28:09.087Z,89.40
2018-06-04T07:30:37.917Z,90.20
2018-06-04T07:33:06.723Z,88.50
2018-06-04T07:35:35.501Z,90.10
2018-06-04T07:38:04.401Z,89.50
2018-06-04T07:40:33.285Z,89.10
2018-06-04T07:43:02.177Z,88.30
2018-06-04T07:45:31.015Z,88.80
2018-06-04T07:47:59.790Z,88.80
2018-06-04T07:50:28.651Z,88.30
2018-06-04T07:52:57.849Z,88.00
2018-06-04T07:55:26.650Z,89.00
2018-06-04T07:57:55.474Z,88.30
2018-06-04T08:00:29.336Z,87.70
2018-06-04T08:02:58.194Z,89.50
2018-06-04T08:05:27.067Z,88.70
2018-06-04T08:07:55.869Z,86.60
2018-06-04T08:10:24.726Z,88.60
2018-06-04T08:12:53.543Z,86.30
2018-06-04T08:15:22.328Z,87.50
2018-06-04T08:17:51.162Z,84.90
2018-06-04T08:20:20.058Z,85.20
2018-06-04T08:22:48.962Z,84.10
2018-06-04T08:25:17.753Z,83.80
2018-06-04T08:27:46.583Z,84.10
2018-06-04T08:30:15.381Z,85.10
2018-06-04T08:32:44.195Z,83.30
2018-06-04T08:35:12.990Z,83.30
2018-06-04T08:37:41.762Z,83.30
2018-06-04T08:40:10.542Z,82.30
2018-06-04T08:42:39.290Z,81.00
2018-06-04T08:45:08.104Z,79.80
2018-06-04T08:47:36.888Z,81.60
2018-06-04T08:50:05.678Z,79.80
2018-06-04T08:52:34.422Z,79.50
2018-06-04T08:55:03.245Z,78.90
2018-06-04T08:57:32.071Z,77.30
2018-06-04T09:00:00.917Z,79.10
2018-06-04T09:02:36.297Z,78.10
2018-06-04T09:05:05.159Z,78.50
2018-06-04T09:07:33.997Z,78.50
2018-06-04T09:10:02.814Z,79.50
2018-06-04T09:12:31.597Z,77.20
2018-06-04T09:15:00.385Z,76.30
2018-06-04T09:17:29.218Z,76.60
2018-06-04T09:19:58.058Z,76.70
2018-06-04T09:22:26.934Z,75.50
2018-06-04T09:24:55.822Z,79.20
2018-06-04T09:27:24.633Z,76.30
2018-06-04T09:29:53.710Z,75.50
2018-06-04T09:32:22.592Z,76.40
2018-06-04T09:34:51.298Z,74.00
2018-06-04T09:37:20.122Z,74.20
2018-06-04T09:39:48.886Z,73.00
2018-06-04T09:42:17.701Z,71.90
2018-06-04T09:47:15.046Z,73.80
2018-06-04T09:49:43.874Z,71.70
2018-06-04T09:52:12.691Z,73.20
2018-06-04T09:54:42.481Z,73.80
2018-06-04T09:57:11.279Z,73.50
2018-06-04T09:59:40.091Z,71.60
2018-06-04T10:02:09.100Z,73.40
2018-06-04T10:04:37.940Z,75.50
2018-06-04T10:07:06.690Z,71.10
2018-06-04T10:09:46.613Z,72.00
2018-06-04T10:12:15.413Z,70.90
2018-06-04T10:14:44.209Z,72.60
2018-06-04T10:17:13.157Z,72.20
2018-06-04T10:19:41.934Z,74.10
2018-06-04T10:22:10.758Z,72.50
2018-06-04T10:24:39.553Z,72.60
2018-06-04T10:27:08.377Z,69.00
2018-06-04T10:29:37.177Z,70.60
2018-06-04T10:32:06.011Z,68.10
2018-06-04T10:34:34.828Z,68.40
2018-06-04T10:37:03.642Z,69.40
2018-06-04T10:39:32.466Z,68.00
2018-06-04T10:42:01.270Z,70.20
2018-06-04T10:44:30.185Z,69.90
2018-06-04T10:46:58.966Z,68.80
2018-06-04T10:49:27.702Z,67.30
2018-06-04T10:51:56.528Z,70.10
2018-06-04T10:54:25.327Z,67.60
2018-06-04T10:56:54.102Z,65.20
2018-06-04T10:59:29.749Z,65.40
2018-06-04T11:01:58.686Z,67.10
2018-06-04T11:04:27.760Z,67.30
2018-06-04T11:06:56.566Z,65.70
2018-06-04T11:09:25.378Z,65.50
2018-06-04T11:11:55.309Z,64.70
2018-06-04T11:14:24.085Z,64.10
2018-06-04T11:16:57.057Z,59.10
2018-06-04T11:19:25.809Z,60.00
2018-06-04T11:22:03.334Z,60.90
2018-06-04T11:24:32.151Z,61.80
2018-06-04T11:27:00.954Z,61.30
2018-06-04T11:29:29.790Z,60.30
2018-06-04T11:31:58.581Z,58.10
2018-06-04T11:34:27.350Z,59.50
2018-06-04T11:36:56.203Z,60.50
2018-06-04T11:39:25.062Z,61.70
2018-06-04T11:41:54.005Z,60.70
2018-06-04T11:44:22.798Z,59.80
2018-06-04T11:46:51.533Z,59.40
2018-06-04T11:49:20.321Z,60.00
2018-06-04T11:51:51.234Z,60.40
2018-06-04T11:54:20.039Z,59.40
2018-06-04T11:56:57.547Z,59.90
2018-06-04T11:59:26.642Z,58.20
2018-06-04T12:01:55.536Z,60.70
2018-06-04T12:04:24.341Z,57.60
2018-06-04T12:06:53.105Z,58.40
2018-06-04T12:09:23.157Z,58.30
2018-06-04T12:11:52.018Z,58.90
2018-06-04T12:14:20.781Z,58.00
2018-06-04T12:16:50.672Z,61.50
2018-06-04T12:19:19.527Z,57.80
2018-06-04T12:21:48.297Z,59.20
2018-06-04T12:24:17.265Z,58.10
2018-06-04T12:27:04.001Z,59.00
2018-06-04T12:29:32.807Z,57.20
2018-06-04T12:32:20.473Z,57.20
2018-06-04T12:34:49.310Z,56.30
2018-06-04T12:37:18.230Z,56.70
2018-06-04T12:39:47.017Z,57.50
2018-06-04T12:42:17.024Z,56.30
2018-06-04T12:44:45.817Z,56.60
2018-06-04T12:47:25.965Z,55.80
2018-06-04T12:49:54.720Z,56.10
2018-06-04T12:52:23.465Z,56.00
2018-06-04T12:54:52.269Z,58.20
2018-06-04T12:57:25.641Z,57.10
2018-06-04T12:59:54.469Z,56.30
2018-06-04T13:02:23.292Z,57.00
2018-06-04T13:04:52.251Z,56.50
2018-06-04T13:07:21.069Z,55.70
2018-06-04T13:09:54.909Z,56.60
2018-06-04T13:12:23.721Z,58.30
2018-06-04T13:14:52.484Z,57.50
2018-06-04T13:17:21.281Z,54.20
2018-06-04T13:19:50.105Z,54.50
2018-06-04T13:22:18.980Z,53.10
2018-06-04T13:24:50.038Z,56.30
2018-06-04T13:27:18.809Z,57.20
2018-06-04T13:29:47.653Z,55.00
2018-06-04T13:32:16.476Z,54.60
2018-06-04T13:37:30.314Z,52.30
2018-06-04T13:39:59.125Z,56.30
2018-06-04T13:42:28.012Z,53.20
2018-06-04T13:44:56.807Z,53.60
2018-06-04T13:47:36.245Z,53.60
2018-06-04T13:50:05.046Z,50.50
2018-06-04T13:52:33.885Z,54.10
2018-06-04T13:55:02.674Z,49.60
2018-06-04T13:57:31.469Z,50.70
2018-06-04T14:00:00.297Z,54.50
2018-06-04T14:02:29.065Z,53.70
2018-06-04T14:05:11.191Z,53.80
2018-06-04T14:07:40.000Z,50.70
2018-06-04T14:10:11.913Z,52.60
2018-06-04T14:12:43.091Z,51.70
2018-06-04T14:15:19.733Z,49.70
2018-06-04T14:17:48.557Z,51.00
2018-06-04T14:20:17.309Z,54.90
2018-06-04T14:22:56.262Z,52.00
2018-06-04T14:25:25.625Z,48.50
2018-06-04T14:27:54.441Z,52.00
2018-06-04T14:30:28.381Z,51.30
2018-06-04T14:35:26.881Z,51.20
2018-06-04T14:38:01.937Z,49.10
2018-06-04T14:40:31.523Z,51.30
2018-06-04T14:43:01.108Z,50.50
2018-06-04T14:45:30.559Z,49.80
2018-06-04T14:48:01.151Z,51.70
2018-06-04T14:50:30.688Z,48.20
2018-06-04T14:53:00.331Z,48.70
2018-06-04T14:55:36.459Z,50.00
2018-06-04T15:00:34.094Z,48.20
2018-06-04T15:03:03.904Z,46.80
2018-06-04T15:05:33.385Z,48.90
2018-06-04T15:08:03.149Z,47.80
2018-06-04T15:10:40.215Z,48.30
2018-06-04T15:13:09.767Z,48.00
2018-06-04T15:15:43.370Z,48.30
2018-06-04T15:18:13.319Z,45.50
2018-06-04T15:20:43.235Z,47.80
2018-06-04T15:23:13.473Z,47.80
2018-06-04T15:25:42.249Z,47.20
2018-06-04T15:28:11.123Z,48.50
2018-06-04T15:30:41.049Z,47.40
2018-06-04T15:33:09.861Z,47.60
2018-06-04T15:35:38.721Z,46.70
2018-06-04T15:38:07.508Z,47.80
2018-06-04T15:40:39.993Z,47.50
2018-06-04T15:43:08.970Z,46.50
2018-06-04T15:45:37.763Z,47.10
2018-06-04T15:48:06.545Z,46.50
2018-06-04T15:50:35.313Z,48.20
2018-06-04T15:53:04.173Z,46.10
2018-06-04T15:55:32.985Z,47.30
2018-06-04T15:58:01.813Z,45.50
2018-06-04T16:00:30.586Z,45.80
2018-06-04T16:02:59.419Z,42.10
2018-06-04T16:05:28.221Z,40.90
2018-06-04T16:07:57.005Z,39.30
2018-06-04T16:10:25.869Z,40.20
2018-06-04T16:12:54.669Z,40.50
2018-06-04T16:15:24.586Z,37.00
2018-06-04T16:17:53.369Z,36.30
2018-06-04T16:20:22.205Z,35.60
2018-06-04T16:22:50.985Z,33.50
2018-06-04T16:27:48.434Z,32.50
2018-06-04T16:30:17.333Z,32.40
2018-06-04T16:32:46.150Z,32.60
2018-06-04T16:35:14.981Z,30.30
2018-06-04T16:38:02.561Z,30.80
2018-06-04T16:40:31.446Z,31.60
2018-06-04T16:43:00.265Z,30.60
2018-06-04T16:45:29.001Z,31.00
2018-06-04T16:47:57.814Z,31.30
2018-06-04T16:50:26.636Z,30.00
2018-06-04T16:52:55.389Z,30.70
2018-06-04T16:55:24.186Z,30.90
2018-06-04T16:57:53.048Z,30.00
2018-06-04T17:00:21.812Z,30.10
2018-06-04T17:02:50.658Z,30.80
2018-06-04T17:05:19.493Z,31.60
2018-06-04T17:07:48.305Z,30.50
2018-06-04T17:10:17.063Z,30.30
2018-06-04T17:12:45.855Z,30.10
2018-06-04T17:15:14.681Z,31.10
2018-06-04T17:17:43.530Z,31.40
2018-06-04T17:20:12.321Z,32.20
2018-06-04T17:22:41.131Z,33.30
2018-06-04T17:25:09.940Z,34.30
2018-06-04T17:27:38.848Z,33.70
2018-06-04T17:30:07.658Z,34.30
2018-06-04T17:32:36.385Z,35.10
2018-06-04T17:35:05.277Z,34.90
2018-06-04T17:37:34.045Z,32.00
2018-06-04T17:40:02.937Z,32.30
2018-06-04T17:42:31.677Z,31.60
2018-06-04T17:45:00.532Z,30.80
2018-06-04T17:47:29.230Z,31.50
2018-06-04T17:49:58.001Z,32.20
2018-06-04T17:52:37.842Z,31.50
2018-06-04T17:55:06.663Z,31.30
2018-06-04T17:57:35.426Z,32.90
2018-06-04T18:00:05.449Z,32.70
2018-06-04T18:02:34.237Z,33.80
2018-06-04T18:05:03.322Z,34.40
2018-06-04T18:07:32.121Z,34.50
2018-06-04T18:10:02.302Z,34.60
2018-06-04T18:12:32.017Z,34.90
2018-06-04T18:15:00.822Z,34.30
2018-06-04T18:17:29.664Z,34.70
2018-06-04T18:19:58.460Z,35.30
2018-06-04T18:22:27.285Z,34.80
2018-06-04T18:24:56.073Z,33.90
2018-06-04T18:27:24.894Z,33.70
2018-06-04T18:29:53.721Z,33.10
2018-06-04T18:32:22.566Z,32.60
2018-06-04T18:34:51.309Z,32.30
2018-06-04T18:37:20.141Z,32.30
2018-06-04T18:39:48.956Z,31.40
2018-06-04T18:42:17.873Z,32.20
2018-06-04T18:44:46.715Z,32.30
2018-06-04T18:47:15.517Z,32.30
2018-06-04T18:49:44.425Z,33.50
2018-06-04T18:52:13.178Z,34.20
2018-06-04T18:54:41.969Z,35.70
2018-06-04T18:57:10.701Z,36.30
2018-06-04T18:59:39.812Z,37.60
2018-06-04T19:02:08.573Z,40.40
2018-06-04T19:04:37.654Z,39.60
2018-06-04T19:07:06.648Z,41.00
2018-06-04T19:09:35.454Z,41.70
2018-06-04T19:12:04.318Z,43.00
2018-06-04T19:14:33.125Z,44.60
2018-06-04T19:17:01.907Z,45.90
2018-06-04T19:19:30.706Z,46.70
2018-06-04T19:21:59.521Z,47.90
2018-06-04T19:24:28.394Z,48.90
2018-06-04T19:26:57.427Z,48.70
2018-06-04T19:29:26.161Z,48.70
2018-06-04T19:31:55.055Z,49.40
2018-06-04T19:34:23.853Z,51.60
2018-06-04T19:36:52.641Z,50.40
2018-06-04T19:39:21.449Z,52.60
2018-06-04T19:41:50.221Z,51.60
2018-06-04T19:44:19.038Z,52.60
2018-06-04T19:46:47.812Z,52.50
2018-06-04T19:49:16.638Z,52.60
2018-06-04T19:51:45.437Z,53.10
2018-06-04T19:54:14.309Z,53.80
2018-06-04T19:56:43.213Z,54.30
2018-06-04T19:59:12.077Z,55.50
2018-06-04T20:01:42.085Z,55.40
2018-06-04T20:04:10.886Z,56.80
2018-06-04T20:06:39.653Z,56.50
2018-06-04T20:09:09.190Z,56.00
2018-06-04T20:11:38.008Z,57.30
2018-06-04T20:14:29.962Z,57.40
2018-06-04T20:16:58.850Z,56.80
2018-06-04T20:19:27.692Z,58.20
2018-06-04T20:21:56.443Z,58.50
2018-06-04T20:24:25.217Z,59.00
2018-06-04T20:26:54.133Z,59.30
2018-06-04T20:29:23.000Z,60.00
2018-06-04T20:31:51.749Z,59.70
2018-06-04T20:36:49.068Z,61.50
2018-06-04T20:39:17.873Z,62.20
2018-06-04T20:41:46.690Z,62.60
2018-06-04T20:44:15.532Z,63.20
2018-06-04T20:46:44.294Z,63.60
2018-06-04T20:49:13.081Z,63.50
2018-06-04T20:51:41.925Z,63.70
2018-06-04T20:54:10.698Z,63.60
2018-06-04T20:56:39.526Z,65.20
2018-06-04T20:59:08.382Z,65.30
2018-06-04T21:01:37.179Z,65.70
2018-06-04T21:04:06.025Z,66.80
2018-06-04T21:06:34.905Z,66.40
2018-06-04T21:11:33.009Z,66.60
2018-06-04T21:14:01.858Z,67.60
2018-06-04T21:16:30.622Z,67.80
2018-06-04T21:18:59.485Z,68.20
2018-06-04T21:21:28.341Z,67.60
2018-06-04T21:23:57.189Z,67.60
2018-06-04T21:26:25.993Z,68.80
2018-06-04T21:28:54.792Z,69.90
2018-06-04T21:31:23.661Z,68.40
2018-06-04T21:33:52.986Z,70.00
2018-06-04T21:36:21.774Z,69.20
2018-06-04T21:38:50.560Z,70.70
2018-06-04T21:41:19.337Z,70.70
2018-06-04T21:43:48.153Z,71.20
2018-06-04T21:46:17.005Z,71.90
2018-06-04T21:48:48.282Z,72.10
2018-06-04T21:51:17.052Z,72.50
2018-06-04T21:53:45.852Z,73.00
2018-06-04T21:56:14.766Z,74.00
2018-06-04T21:58:43.597Z,72.70
2018-06-04T22:01:12.445Z,72.80
2018-06-04T22:03:41.222Z,73.70
2018-06-04T22:06:10.001Z,74.60
2018-06-04T22:08:38.813Z,73.60
2018-06-04T22:11:07.690Z,74.20
2018-06-04T22:13:36.505Z,74.50
2018-06-04T22:16:05.518Z,75.20
2018-06-04T22:18:34.371Z,74.40
2018-06-04T22:21:03.190Z,73.80
2018-06-04T22:23:31.997Z,74.50
2018-06-04T22:26:00.769Z,75.20
2018-06-04T22:28:29.540Z,76.10
2018-06-04T22:30:58.407Z,75.20
2018-06-04T22:33:27.205Z,76.80
2018-06-04T22:35:55.995Z,75.30
2018-06-04T22:38:24.765Z,75.80
2018-06-04T22:40:53.579Z,77.00
2018-06-04T22:43:22.457Z,76.20
2018-06-04T22:45:51.333Z,76.10
2018-06-04T22:48:20.156Z,76.00
2018-06-04T22:50:48.953Z,76.10
2018-06-04T22:53:17.825Z,77.20
2018-06-04T22:55:46.706Z,78.30
2018-06-04T22:58:15.497Z,76.50
2018-06-04T23:00:44.306Z,77.60
2018-06-04T23:03:13.213Z,76.40
2018-06-04T23:05:42.106Z,77.00
2018-06-04T23:08:10.865Z,77.10
2018-06-04T23:10:39.746Z,78.00
2018-06-04T23:13:08.758Z,78.00
2018-06-04T23:15:37.601Z,77.90
2018-06-04T23:18:06.401Z,77.90
2018-06-04T23:20:35.217Z,77.60
2018-06-04T23:23:04.018Z,78.10
2018-06-04T23:25:32.737Z,78.70
2018-06-04T23:28:01.554Z,80.00
2018-06-04T23:30:30.390Z,79.80
2018-06-04T23:32:59.210Z,80.20
2018-06-04T23:35:28.030Z,81.10
2018-06-04T23:37:56.862Z,80.40
2018-06-04T23:40:25.642Z,80.50
2018-06-04T23:42:54.480Z,80.70
2018-06-04T23:45:23.274Z,81.40
2018-06-04T23:47:52.126Z,81.00
2018-06-04T23:50:20.890Z,80.80
2018-06-04T23:52:49.698Z,81.50
2018-06-04T23:55:18.460Z,81.90
2018-06-04T23:57:47.249Z,82.90
